createdAt,value
2024-02-17T00:00:13.970Z,102332.69
2024-02-17T00:05:15.845Z,102332.06
2024-02-17T00:10:17.501Z,102333.19
2024-02-17T00:15:19.066Z,102339.72
2024-02-17T00:20:20.765Z,102342.19
2024-02-17T00:25:22.361Z,102349.22
2024-02-17T00:30:24.343Z,102360.00
2024-02-17T00:35:25.912Z,102365.31
2024-02-17T00:40:28.824Z,102362.72
2024-02-17T00:45:31.092Z,102377.75
2024-02-17T00:50:32.861Z,102383.78
2024-02-17T00:55:35.241Z,102392.84
2024-02-17T01:00:38.114Z,102399.09
2024-02-17T01:05:40.570Z,102405.50
2024-02-17T01:10:43.092Z,102401.28
2024-02-17T01:15:45.180Z,102410.41
2024-02-17T01:20:46.867Z,102417.59
2024-02-17T01:25:48.404Z,102420.41
2024-02-17T01:30:50.000Z,102440.44
2024-02-17T01:35:51.558Z,102449.97
2024-02-17T01:40:53.283Z,102453.34
2024-02-17T01:45:55.141Z,102452.56
2024-02-17T01:50:57.803Z,102438.44
2024-02-17T01:55:59.715Z,102457.19
2024-02-17T02:01:01.640Z,102459.16
2024-02-17T02:06:03.995Z,102467.84
2024-02-17T02:11:08.942Z,102471.59
2024-02-17T02:16:10.680Z,102476.69
2024-02-17T02:21:12.494Z,102491.28
2024-02-17T02:26:14.335Z,102490.19
2024-02-17T02:31:15.914Z,102499.00
2024-02-17T02:36:18.083Z,102494.88
2024-02-17T02:41:19.643Z,102493.50
2024-02-17T02:46:21.198Z,102510.16
2024-02-17T02:51:22.843Z,102516.69
2024-02-17T02:56:25.073Z,102534.00
2024-02-17T03:01:26.710Z,102547.78
2024-02-17T03:06:30.681Z,102550.63
2024-02-17T03:11:34.004Z,102556.94
2024-02-17T03:16:35.661Z,102564.66
2024-02-17T03:21:37.862Z,102562.81
2024-02-17T03:26:39.576Z,102569.09
2024-02-17T03:31:41.276Z,102565.84
2024-02-17T03:36:43.065Z,102563.13
2024-02-17T03:41:44.642Z,102594.25
2024-02-17T03:46:46.330Z,102583.81
2024-02-17T03:51:48.768Z,102599.59
2024-02-17T03:56:50.635Z,102595.69
2024-02-17T04:01:56.484Z,102598.41
2024-02-17T04:06:58.288Z,102625.50
2024-02-17T04:12:00.032Z,102619.84
2024-02-17T04:17:01.612Z,102633.97
2024-02-17T04:22:03.318Z,102643.47
2024-02-17T04:27:05.293Z,102650.31
2024-02-17T04:32:07.004Z,102646.84
2024-02-17T04:37:08.614Z,102647.91
2024-02-17T04:42:10.170Z,102680.19
2024-02-17T04:47:11.799Z,102687.91
2024-02-17T04:52:13.347Z,102696.03
2024-02-17T04:57:15.223Z,102701.00
2024-02-17T05:02:17.004Z,102710.22
2024-02-17T05:07:18.582Z,102712.72
2024-02-17T05:12:20.269Z,102704.31
2024-02-17T05:17:21.973Z,102696.06
2024-02-17T05:22:23.650Z,102717.69
2024-02-17T05:27:25.219Z,102726.75
2024-02-17T05:32:28.345Z,102739.72
2024-02-17T05:37:29.950Z,102742.75
2024-02-17T05:42:31.559Z,102761.53
2024-02-17T05:47:33.197Z,102765.31
2024-02-17T05:52:34.755Z,102789.06
2024-02-17T05:57:36.361Z,102801.84
2024-02-17T06:02:37.945Z,102826.53
2024-02-17T06:07:39.657Z,102839.53
2024-02-17T06:12:41.568Z,102837.13
2024-02-17T06:17:44.510Z,102843.34
2024-02-17T06:22:46.228Z,102850.09
2024-02-17T06:27:47.875Z,102850.63
2024-02-17T06:32:49.514Z,102859.81
2024-02-17T06:37:51.128Z,102863.38
2024-02-17T06:42:53.005Z,102863.09
2024-02-17T06:47:54.587Z,102874.94
2024-02-17T06:52:56.159Z,102885.69
2024-02-17T06:57:57.750Z,102885.41
2024-02-17T07:02:59.258Z,102899.25
2024-02-17T07:08:01.505Z,102902.75
2024-02-17T07:13:08.174Z,102907.03
2024-02-17T07:18:09.950Z,102910.91
2024-02-17T07:23:14.274Z,102922.84
2024-02-17T07:28:15.918Z,102926.53
2024-02-17T07:33:18.077Z,102920.41
2024-02-17T07:38:19.744Z,102922.06
2024-02-17T07:43:21.414Z,102929.13
2024-02-17T07:48:23.214Z,102965.81
2024-02-17T07:53:24.896Z,102967.88
2024-02-17T07:58:26.410Z,102957.78
2024-02-17T08:03:30.555Z,102978.28
2024-02-17T08:08:32.553Z,102981.75
2024-02-17T08:13:34.128Z,102992.34
2024-02-17T08:18:36.041Z,102992.34
2024-02-17T08:23:37.814Z,102996.91
2024-02-17T08:28:39.748Z,102998.94
2024-02-17T08:33:41.539Z,103003.72
2024-02-17T08:38:43.198Z,103006.84
2024-02-17T08:43:44.728Z,103019.38
2024-02-17T08:48:46.418Z,103018.97
2024-02-17T08:53:48.044Z,103018.97
2024-02-17T08:58:49.650Z,103026.44
2024-02-17T09:03:51.366Z,103033.91
2024-02-17T09:08:53.043Z,103039.47
2024-02-17T09:13:54.829Z,103048.47
2024-02-17T09:18:56.499Z,103054.78
2024-02-17T09:23:58.176Z,103051.19
2024-02-17T09:28:59.680Z,103058.19
2024-02-17T09:34:01.542Z,103051.88
2024-02-17T09:39:03.967Z,103065.47
2024-02-17T09:44:05.733Z,103065.22
2024-02-17T09:49:08.704Z,103078.41
2024-02-17T09:54:11.753Z,103079.88
2024-02-17T09:59:14.556Z,103084.81
2024-02-17T10:04:16.262Z,103099.66
2024-02-17T10:09:22.326Z,103102.69
2024-02-17T10:14:25.151Z,103100.00
2024-02-17T10:19:27.012Z,103104.03
2024-02-17T10:24:28.848Z,103107.22
2024-02-17T10:29:30.622Z,103105.69
2024-02-17T10:34:32.316Z,103110.94
2024-02-17T10:39:35.008Z,103120.75
2024-02-17T10:44:36.603Z,103136.97
2024-02-17T10:49:54.951Z,103144.44
2024-02-17T10:55:05.489Z,103161.84
2024-02-17T11:00:09.498Z,103162.03
2024-02-17T11:05:11.364Z,103176.31
2024-02-17T11:10:14.455Z,103172.03
2024-02-17T11:15:16.010Z,103181.28
2024-02-17T11:20:18.954Z,103191.06
2024-02-17T11:25:35.911Z,103204.66
2024-02-17T11:30:48.718Z,103191.84
2024-02-17T11:35:51.549Z,103194.56
2024-02-17T11:40:58.600Z,103202.91
2024-02-17T11:46:01.039Z,103199.22
2024-02-17T11:51:27.064Z,103193.59
2024-02-17T11:56:33.842Z,103187.38
2024-02-17T12:01:35.474Z,103192.75
2024-02-17T12:06:37.189Z,103196.91
2024-02-17T12:11:40.551Z,103200.22
2024-02-17T12:16:42.605Z,103207.78
2024-02-17T12:21:45.879Z,103220.59
2024-02-17T12:26:48.625Z,103199.81
2024-02-17T12:31:52.961Z,103198.84
2024-02-17T12:36:55.118Z,103195.19
2024-02-17T12:42:06.882Z,103193.53
2024-02-17T12:47:17.838Z,103201.69
2024-02-17T12:52:20.634Z,103198.97
2024-02-17T12:57:22.674Z,103194.00
2024-02-17T13:02:24.308Z,103201.88
2024-02-17T13:07:25.926Z,103203.94
2024-02-17T13:12:27.499Z,103204.53
2024-02-17T13:17:29.523Z,103207.53
2024-02-17T13:22:31.277Z,103204.13
2024-02-17T13:27:39.847Z,103202.09
2024-02-17T13:32:45.450Z,103206.56
2024-02-17T13:37:47.532Z,103196.63
2024-02-17T13:42:49.182Z,103183.22
2024-02-17T13:47:50.853Z,103177.88
2024-02-17T13:52:53.786Z,103183.97
2024-02-17T13:57:55.450Z,103195.66
2024-02-17T14:02:57.764Z,103194.00
2024-02-17T14:07:59.976Z,103199.25
2024-02-17T14:13:01.978Z,103188.69
2024-02-17T14:18:04.759Z,103196.50
2024-02-17T14:23:06.580Z,103193.81
2024-02-17T14:28:08.259Z,103196.78
2024-02-17T14:33:11.461Z,103190.09
2024-02-17T14:38:13.176Z,103202.66
2024-02-17T14:43:15.130Z,103203.16
2024-02-17T14:48:17.014Z,103199.72
2024-02-17T14:53:18.764Z,103201.69
2024-02-17T14:58:20.383Z,103193.00
2024-02-17T15:03:22.950Z,103191.47
2024-02-17T15:08:24.716Z,103203.47
2024-02-17T15:13:27.658Z,103199.56
2024-02-17T15:18:29.806Z,103210.41
2024-02-17T15:23:32.796Z,103198.50
2024-02-17T15:28:35.165Z,103207.13
2024-02-17T15:33:36.932Z,103206.13
2024-02-17T15:38:38.548Z,103212.56
2024-02-17T15:43:40.154Z,103197.50
2024-02-17T15:48:41.773Z,103211.16
2024-02-17T15:53:43.415Z,103211.78
2024-02-17T15:58:45.439Z,103211.16
2024-02-17T16:03:47.290Z,103187.03
2024-02-17T16:08:49.033Z,103162.25
2024-02-17T16:13:50.619Z,103161.28
2024-02-17T16:18:52.365Z,103149.56
2024-02-17T16:23:55.765Z,103163.16
2024-02-17T16:28:57.303Z,103176.97
2024-02-17T16:34:02.067Z,103190.03
2024-02-17T16:39:05.309Z,103184.41
2024-02-17T16:44:07.316Z,103193.66
2024-02-17T16:49:09.271Z,103192.81
2024-02-17T16:54:10.908Z,103204.56
2024-02-17T16:59:13.101Z,103199.72
2024-02-17T17:04:14.884Z,103195.38
2024-02-17T17:09:16.521Z,103199.16
2024-02-17T17:14:18.154Z,103198.84
2024-02-17T17:19:19.777Z,103198.84
2024-02-17T17:24:21.636Z,103205.66
2024-02-17T17:29:23.208Z,103200.13
2024-02-17T17:34:24.948Z,103201.75
2024-02-17T17:39:26.628Z,103200.81
2024-02-17T17:44:28.166Z,103206.84
2024-02-17T17:49:29.972Z,103218.00
2024-02-17T17:54:31.714Z,103222.94
2024-02-17T17:59:35.437Z,103226.03
2024-02-17T18:04:37.341Z,103220.41
2024-02-17T18:09:39.123Z,103214.53
2024-02-17T18:14:41.766Z,103213.94
2024-02-17T18:19:43.378Z,103214.50
2024-02-17T18:24:45.559Z,103205.34
2024-02-17T18:29:47.189Z,103215.38
2024-02-17T18:34:49.160Z,103209.25
2024-02-17T18:39:50.917Z,103215.97
2024-02-17T18:44:52.562Z,103220.56
2024-02-17T18:49:54.249Z,103217.06
2024-02-17T18:54:56.440Z,103224.34
2024-02-17T18:59:58.464Z,103220.56
2024-02-17T19:05:00.166Z,103214.91
2024-02-17T19:10:01.864Z,103207.50
2024-02-17T19:15:04.244Z,103196.41
2024-02-17T19:20:09.828Z,103195.84
2024-02-17T19:25:11.592Z,103205.53
2024-02-17T19:30:13.667Z,103199.44
2024-02-17T19:35:15.405Z,103191.03
2024-02-17T19:40:19.215Z,103189.59
2024-02-17T19:45:21.010Z,103184.81
2024-02-17T19:50:24.043Z,103191.03
2024-02-17T19:55:25.757Z,103187.44
2024-02-17T20:00:27.629Z,103182.53
2024-02-17T20:05:29.868Z,103184.22
2024-02-17T20:10:31.466Z,103192.47
2024-02-17T20:15:33.054Z,103190.66
2024-02-17T20:20:34.606Z,103190.47
2024-02-17T20:25:36.165Z,103173.97
2024-02-17T20:30:38.212Z,103179.91
2024-02-17T20:35:39.952Z,103179.78
2024-02-17T20:40:41.502Z,103171.72
2024-02-17T20:45:44.684Z,103169.97
2024-02-17T20:50:46.327Z,103162.00
2024-02-17T20:55:48.226Z,103163.06
2024-02-17T21:00:49.895Z,103154.00
2024-02-17T21:05:51.818Z,103143.13
2024-02-17T21:10:53.874Z,103146.31
2024-02-17T21:15:55.602Z,103149.81
2024-02-17T21:20:57.226Z,103138.72
2024-02-17T21:25:58.838Z,103146.78
2024-02-17T21:31:01.602Z,103126.66
2024-02-17T21:36:03.301Z,103145.50
2024-02-17T21:41:04.908Z,103127.53
2024-02-17T21:46:07.324Z,103123.94
2024-02-17T21:51:18.784Z,103115.84
2024-02-17T21:56:20.568Z,103111.06
2024-02-17T22:01:22.867Z,103113.47
2024-02-17T22:06:24.609Z,103118.94
2024-02-17T22:11:26.235Z,103119.03
2024-02-17T22:16:27.894Z,103109.66
2024-02-17T22:21:30.785Z,103106.72
2024-02-17T22:26:32.974Z,103107.50
2024-02-17T22:31:35.341Z,103099.53
2024-02-17T22:36:37.701Z,103094.09
2024-02-17T22:41:39.346Z,103074.91
2024-02-17T22:46:40.892Z,103092.66
2024-02-17T22:51:43.473Z,103075.78
2024-02-17T22:56:45.059Z,103076.13
2024-02-17T23:01:46.657Z,103070.25
2024-02-17T23:06:48.928Z,103059.78
2024-02-17T23:11:51.174Z,103050.94
2024-02-17T23:16:53.587Z,103045.41
2024-02-17T23:21:55.217Z,103045.28
2024-02-17T23:26:56.836Z,103043.63
2024-02-17T23:31:58.396Z,103045.59
2024-02-17T23:37:00.174Z,103028.94
2024-02-17T23:42:02.793Z,103029.59
2024-02-17T23:47:04.556Z,103030.47
2024-02-17T23:52:06.390Z,103020.34
2024-02-17T23:57:08.156Z,103010.63
